Startpagina
METAR-TAF:

METAR-TAF

Vliegvelden :

Wallis, Frankrijk

breedte: 13-14S, lengte: 176-10W, hoogte: 23 m

METAR: ontbreekt

Tijdstip: 19:12 (07:12 UTC)

Verwachting

Dit bericht is 2 uur en het 12 minuten geleden gemaakt, om 05:00 UTC
Verwachting geldig van 27 om 06 UTC tot 28 om 06 UTC
Wind 12 kt uit het oostzuidoosten
Zicht 10 km of meer
Weinig wolken op 2000 ft
Kans 30%
van 27 om 10 UTC tot 28 om 06 UTC
Weinig wolken op 2000 ft, Stapelwolken.
regenbuien

TAF: NLWW 270500Z 2706/2806 11012KT 9999 FEW020 PROB30 2710/2806 SHRA FEW020TCU

Waarnemingen en weersverwachtingen van meer dan 4000 vliegvelden (METAR en TAF).

De beschikbare stations zijn de gele en rode punten op de kaart.

Ga met uw muis naar het station om de naam te zien.

Klik dan om waarnemingen en weersverwachtingen te zien.

kaart wijzigen: klik op de groene knoppen met een zwart kruis om in te zoomen, op de groene knop met een streepje om uit te zoomen of op de groene pijlen voor aangrenzende kaarten.


METAR-TAF: